Whitmer, West Virginia
Current Conditions -  °F | °C
As of 12:51 PM on Sunday 21 Dec 2014 (Local Time) from KEKN Reporting Station
Scattered Clouds Scattered Clouds  
Wind Chill: 38°   Ceiling: Unl
Heat Index: 38°   Visibility: 10mi
Dew Point: 28°   Wind: 0mph
Humidity: 68%   Direction: NA
Pressure: 30.2"   Gusts: NA
Location:  38.81°N, 79.55°W
Report Text: KEKN 211751Z AUTO 00000KT 10SM SCT033 03/M02 A3020 RMK AO2 SLP249 T00331022 10039 21011 58021 TSNO $
Loading
Personal Weather Stations






























Interactive Weather Map New forecast layout! Learn more

10-Day Weather Forecast

Advertisements
Track Severe Weather on mobile